Time;durP1;ratioP1;P1;durP2;ratioP2;P2;SDS_P1;SDS_P2;PMS_P1;PMS_P2;Temp;Humidity;BMP_temperature;BMP_pressure;BME280_temperature;BME280_humidity;BME280_pressure;Samples;Min_cycle;Max_cycle;Signal;HPM_P1;HPM_P2
2021/04/21 00:00:51;;;;;;;5.75;2.10;;;7.00;32.70;;;;;;4340003;32;20070;-58
2021/04/21 00:03:17;;;;;;;5.47;2.50;;;7.00;32.90;;;;;;4351859;32;20075;-58
2021/04/21 00:05:43;;;;;;;4.82;2.50;;;7.00;33.00;;;;;;4339442;32;20067;-58
2021/04/21 00:08:09;;;;;;;2.72;1.77;;;7.10;33.10;;;;;;4339889;32;20158;-58
2021/04/21 00:10:35;;;;;;;3.97;2.20;;;7.00;32.90;;;;;;4339497;32;20086;-57
2021/04/21 00:13:02;;;;;;;1.87;0.95;;;7.00;33.30;;;;;;4339781;32;20085;-58
2021/04/21 00:15:28;;;;;;;5.60;2.80;;;6.90;33.30;;;;;;4339312;32;20155;-57
2021/04/21 00:17:58;;;;;;;4.68;2.17;;;7.00;33.40;;;;;;4339173;32;20141;-57
2021/04/21 00:20:24;;;;;;;4.53;2.10;;;6.90;33.40;;;;;;4339040;32;20089;-58
2021/04/21 00:22:55;;;;;;;3.95;2.28;;;6.90;33.50;;;;;;4338839;32;20074;-57
2021/04/21 00:25:22;;;;;;;6.35;2.70;;;6.80;33.70;;;;;;4327522;32;20137;-58
2021/04/21 00:27:51;;;;;;;7.28;2.75;;;6.90;33.80;;;;;;4340107;32;20064;-58
2021/04/21 00:30:20;;;;;;;7.07;2.60;;;6.90;34.00;;;;;;4339631;32;20083;-58
2021/04/21 00:32:48;;;;;;;6.28;2.37;;;6.80;34.00;;;;;;4352721;32;20067;-57
2021/04/21 00:35:19;;;;;;;4.25;2.22;;;6.80;33.70;;;;;;4351523;32;20506;-57
2021/04/21 00:37:46;;;;;;;5.35;2.60;;;6.90;33.90;;;;;;4352422;32;20589;-57
2021/04/21 00:40:17;;;;;;;8.18;2.72;;;6.80;33.90;;;;;;4339053;32;20070;-57
2021/04/21 00:42:58;;;;;;;5.68;2.30;;;6.90;34.00;;;;;;4351395;32;20208;-57
2021/04/21 00:45:37;;;;;;;7.87;2.40;;;6.80;33.90;;;;;;4339614;32;20081;-57
2021/04/21 00:48:56;;;;;;;6.10;3.22;;;6.90;34.00;;;;;;4352272;32;20162;-58
2021/04/21 00:51:29;;;;;;;5.95;2.97;;;6.80;33.60;;;;;;4338932;32;20150;-58
2021/04/21 00:54:31;;;;;;;9.05;2.67;;;6.90;33.60;;;;;;4339559;32;20066;-58
2021/04/21 00:57:26;;;;;;;5.05;2.60;;;6.90;33.50;;;;;;4340484;32;20186;-58
2021/04/21 01:00:12;;;;;;;4.70;2.12;;;6.90;33.30;;;;;;4363116;32;20093;-58
2021/04/21 01:02:58;;;;;;;4.90;2.45;;;6.90;33.50;;;;;;4353076;32;20070;-57
2021/04/21 01:05:28;;;;;;;3.80;2.53;;;6.90;33.60;;;;;;4353398;32;20070;-58
2021/04/21 01:07:57;;;;;;;6.50;2.62;;;6.80;33.70;;;;;;4338994;32;20444;-57
2021/04/21 01:10:24;;;;;;;6.97;2.62;;;6.80;33.50;;;;;;4350320;32;20059;-58
2021/04/21 01:12:50;;;;;;;4.20;2.50;;;6.80;33.70;;;;;;4338601;32;20054;-58
2021/04/21 01:15:17;;;;;;;5.75;2.25;;;6.80;33.80;;;;;;4335773;32;20166;-57
2021/04/21 01:17:45;;;;;;;6.97;2.72;;;6.80;33.60;;;;;;4336072;32;20077;-57
2021/04/21 01:20:22;;;;;;;4.93;2.45;;;6.80;33.70;;;;;;4335911;32;20069;-57
2021/04/21 01:22:53;;;;;;;7.00;2.65;;;6.80;33.60;;;;;;4312793;32;20083;-57
2021/04/21 01:25:43;;;;;;;9.63;2.72;;;6.80;33.40;;;;;;4348140;32;20138;-58
2021/04/21 01:28:10;;;;;;;3.17;2.00;;;6.80;33.20;;;;;;4336377;32;20166;-57
2021/04/21 01:30:41;;;;;;;6.90;2.33;;;6.90;33.30;;;;;;4336093;32;20149;-57
2021/04/21 01:33:14;;;;;;;4.22;2.50;;;6.80;32.90;;;;;;4324075;32;20219;-58
2021/04/21 01:36:05;;;;;;;1.98;1.40;;;6.80;32.70;;;;;;4324553;32;20145;-57
2021/04/21 01:38:31;;;;;;;3.10;2.00;;;6.80;32.90;;;;;;4337588;32;20448;-58
2021/04/21 01:41:06;;;;;;;6.95;2.55;;;6.80;32.80;;;;;;4335254;32;20071;-57
2021/04/21 01:43:43;;;;;;;6.50;2.53;;;6.80;33.20;;;;;;4336150;32;20142;-58
2021/04/21 01:46:09;;;;;;;4.72;2.62;;;6.80;33.20;;;;;;4323290;32;20090;-57
2021/04/21 01:48:35;;;;;;;5.28;2.00;;;6.80;32.90;;;;;;4335542;32;20085;-58
2021/04/21 01:51:22;;;;;;;6.78;2.72;;;6.70;33.00;;;;;;4347431;32;20520;-58
2021/04/21 01:53:52;;;;;;;3.25;1.90;;;6.70;33.20;;;;;;4326204;32;20059;-59
2021/04/21 01:56:46;;;;;;;3.28;2.17;;;6.60;33.40;;;;;;4336025;32;20094;-58
2021/04/21 01:59:54;;;;;;;3.80;1.92;;;6.60;33.50;;;;;;4344465;32;20080;-57
2021/04/21 02:02:31;;;;;;;4.10;2.20;;;6.60;33.60;;;;;;4288072;33;20197;-57
2021/04/21 02:05:12;;;;;;;11.85;2.55;;;6.60;33.50;;;;;;4264467;33;20079;-57
2021/04/21 02:07:59;;;;;;;5.50;2.47;;;6.60;33.50;;;;;;4326157;32;20082;-58
2021/04/21 02:10:58;;;;;;;4.78;2.30;;;6.60;33.30;;;;;;4362966;32;20199;-57
2021/04/21 02:14:01;;;;;;;3.42;2.17;;;6.70;33.40;;;;;;4347360;32;20073;-57
2021/04/21 02:16:51;;;;;;;3.65;1.85;;;6.60;33.30;;;;;;4347669;32;20082;-58
2021/04/21 02:19:44;;;;;;;3.78;2.15;;;6.60;33.10;;;;;;4335665;32;20498;-57
2021/04/21 02:22:11;;;;;;;4.82;2.50;;;6.70;33.40;;;;;;4348930;32;20164;-58
2021/04/21 02:25:07;;;;;;;3.95;2.60;;;6.60;33.30;;;;;;4350654;32;20066;-57
2021/04/21 02:28:09;;;;;;;4.78;2.62;;;6.70;33.20;;;;;;4352738;32;20079;-57
2021/04/21 02:31:04;;;;;;;6.57;2.70;;;6.70;33.10;;;;;;4350123;32;20230;-58
2021/04/21 02:33:39;;;;;;;4.50;2.58;;;6.80;32.90;;;;;;4353990;32;20093;-58
2021/04/21 02:36:15;;;;;;;6.22;2.30;;;6.70;32.90;;;;;;4338564;32;20512;-58
2021/04/21 02:38:54;;;;;;;;;;;6.60;33.10;;;;;;4327241;32;20077;-58
2021/04/21 02:41:48;;;;;;;5.65;2.87;;;6.60;32.80;;;;;;4338420;32;20043;-59
2021/04/21 02:44:46;;;;;;;7.00;2.78;;;6.70;32.80;;;;;;4341111;32;20070;-58
2021/04/21 02:47:30;;;;;;;4.03;2.05;;;6.70;33.30;;;;;;4298867;32;20125;-57
2021/04/21 02:50:18;;;;;;;6.00;2.67;;;6.60;33.00;;;;;;4339579;32;20485;-57
2021/04/21 02:53:25;;;;;;;6.75;3.30;;;6.70;33.20;;;;;;4350375;32;20078;-58
2021/04/21 02:56:12;;;;;;;5.90;3.10;;;6.70;33.10;;;;;;4339613;32;20077;-58
2021/04/21 02:59:04;;;;;;;7.68;3.47;;;6.60;33.60;;;;;;4343908;32;20093;-57
2021/04/21 03:01:54;;;;;;;6.07;1.90;;;6.70;33.20;;;;;;4366649;32;20143;-57
2021/04/21 03:04:41;;;;;;;8.80;3.53;;;6.60;33.00;;;;;;4341644;32;20493;-57
2021/04/21 03:07:13;;;;;;;;;;;6.70;33.10;;;;;;4365016;32;20216;-58
2021/04/21 03:10:00;;;;;;;7.82;3.15;;;6.70;33.00;;;;;;4353387;32;20333;-58
2021/04/21 03:12:28;;;;;;;4.87;2.78;;;6.80;32.80;;;;;;4352884;32;20141;-58
2021/04/21 03:15:08;;;;;;;9.20;3.50;;;6.80;32.80;;;;;;4337797;32;20101;-58
2021/04/21 03:17:34;;;;;;;6.50;3.60;;;6.70;32.90;;;;;;4325936;32;20075;-57
2021/04/21 03:20:18;;;;;;;5.20;3.20;;;6.60;34.30;;;;;;4350071;32;20081;-58
2021/04/21 03:22:48;;;;;;;5.72;2.95;;;6.80;33.20;;;;;;4325644;32;20070;-58
2021/04/21 03:25:37;;;;;;;9.98;2.70;;;6.80;33.20;;;;;;4337759;32;20097;-57
2021/04/21 03:28:09;;;;;;;7.25;3.60;;;6.70;32.70;;;;;;4327414;32;20063;-58
2021/04/21 03:30:35;;;;;;;6.47;3.47;;;6.70;32.70;;;;;;4313989;32;20086;-58
2021/04/21 03:33:17;;;;;;;6.53;3.80;;;6.60;32.50;;;;;;4336881;32;20185;-57
2021/04/21 03:35:48;;;;;;;9.13;4.57;;;6.70;32.50;;;;;;4337902;32;20065;-58
2021/04/21 03:38:14;;;;;;;6.43;3.85;;;6.80;32.40;;;;;;4325151;32;20433;-58
2021/04/21 03:40:41;;;;;;;8.30;4.93;;;6.90;31.90;;;;;;4325388;32;20112;-57
2021/04/21 03:43:08;;;;;;;10.07;4.75;;;6.80;31.60;;;;;;4337299;32;20075;-57
2021/04/21 03:45:35;;;;;;;8.75;5.00;;;6.80;31.60;;;;;;4337315;32;20067;-58
2021/04/21 03:48:02;;;;;;;7.97;4.75;;;6.90;31.20;;;;;;4336734;32;20566;-58
2021/04/21 03:50:28;;;;;;;9.05;6.22;;;7.00;31.20;;;;;;4337057;32;20063;-57
2021/04/21 03:53:05;;;;;;;10.88;5.78;;;6.90;31.30;;;;;;4325141;32;20094;-57
2021/04/21 03:55:32;;;;;;;9.18;5.22;;;7.00;31.20;;;;;;4338353;32;20150;-57
2021/04/21 03:58:10;;;;;;;13.25;5.80;;;6.90;30.90;;;;;;4326007;32;20067;-57
2021/04/21 04:00:38;;;;;;;12.50;5.53;;;7.00;30.70;;;;;;4339557;32;20085;-56
2021/04/21 04:03:10;;;;;;;7.22;3.40;;;7.10;30.40;;;;;;4340427;32;20070;-57
2021/04/21 04:06:07;;;;;;;11.75;3.95;;;7.10;30.10;;;;;;4339451;32;20158;-57
2021/04/21 04:08:47;;;;;;;12.77;5.85;;;7.00;30.00;;;;;;4353597;32;20517;-57
2021/04/21 04:11:15;;;;;;;10.07;5.28;;;7.30;30.00;;;;;;4359096;32;20073;-58
2021/04/21 04:13:45;;;;;;;16.98;6.15;;;7.10;30.00;;;;;;4327720;32;20070;-58
2021/04/21 04:16:15;;;;;;;16.12;6.20;;;7.30;30.00;;;;;;4313515;32;20089;-57
2021/04/21 04:18:44;;;;;;;10.52;5.50;;;7.20;30.00;;;;;;4349512;32;20089;-57
2021/04/21 04:21:12;;;;;;;12.55;5.35;;;7.10;30.10;;;;;;4312112;32;20462;-57
2021/04/21 04:23:41;;;;;;;16.08;6.50;;;7.30;30.00;;;;;;4324429;32;20092;-57
2021/04/21 04:26:08;;;;;;;12.27;6.10;;;7.20;30.00;;;;;;4324413;32;20073;-58
2021/04/21 04:28:35;;;;;;;12.82;5.32;;;7.10;29.70;;;;;;4349290;32;20161;-57
2021/04/21 04:31:03;;;;;;;10.55;5.43;;;7.10;29.70;;;;;;4337042;32;20238;-58
2021/04/21 04:33:29;;;;;;;11.02;6.03;;;7.10;29.80;;;;;;4325064;32;20079;-57
2021/04/21 04:35:56;;;;;;;11.32;5.53;;;7.20;29.70;;;;;;4312186;32;20085;-57
2021/04/21 04:38:23;;;;;;;10.52;5.18;;;7.20;29.70;;;;;;4324074;32;20058;-57
2021/04/21 04:40:52;;;;;;;10.60;5.18;;;7.20;29.80;;;;;;4335918;32;20149;-57
2021/04/21 04:43:22;;;;;;;9.20;5.50;;;7.20;29.50;;;;;;4336675;32;20457;-56
2021/04/21 04:45:58;;;;;;;12.15;5.53;;;7.20;29.20;;;;;;4324619;32;20528;-57
2021/04/21 04:48:43;;;;;;;11.55;4.70;;;7.20;29.40;;;;;;4324390;32;20582;-57
2021/04/21 04:51:09;;;;;;;8.95;5.10;;;7.20;29.30;;;;;;4313133;32;20156;-58
2021/04/21 04:53:35;;;;;;;10.23;6.18;;;7.20;29.20;;;;;;4311961;32;20181;-57
2021/04/21 04:56:02;;;;;;;11.18;6.87;;;7.20;29.20;;;;;;4336386;32;20515;-57
2021/04/21 04:58:28;;;;;;;12.77;6.55;;;7.10;29.20;;;;;;4339791;32;20500;-57
2021/04/21 05:01:08;;;;;;;12.05;6.97;;;7.20;29.30;;;;;;4338285;32;20075;-58
2021/04/21 05:03:47;;;;;;;13.80;6.78;;;7.20;29.30;;;;;;4327420;32;20074;-58
2021/04/21 05:06:14;;;;;;;11.52;7.05;;;7.20;29.10;;;;;;4351468;32;20069;-57
2021/04/21 05:08:45;;;;;;;14.95;8.57;;;7.30;29.00;;;;;;4338839;32;20160;-57
2021/04/21 05:11:16;;;;;;;12.27;8.40;;;7.20;29.00;;;;;;4364058;32;20069;-57
2021/04/21 05:13:47;;;;;;;12.75;8.35;;;7.30;28.80;;;;;;4350966;32;20070;-57
2021/04/21 05:16:26;;;;;;;10.30;5.95;;;7.30;28.60;;;;;;4350621;32;20078;-57
2021/04/21 05:19:22;;;;;;;12.30;7.50;;;7.30;28.70;;;;;;4379525;32;20503;-59
2021/04/21 05:22:28;;;;;;;10.63;6.80;;;7.30;28.70;;;;;;4380933;32;20173;-58
2021/04/21 05:25:06;;;;;;;11.77;7.57;;;7.30;28.70;;;;;;4367739;32;20074;-58
2021/04/21 05:27:59;;;;;;;13.95;8.10;;;7.30;28.80;;;;;;4383722;32;20154;-58
2021/04/21 05:30:37;;;;;;;16.55;8.32;;;7.30;28.70;;;;;;4362807;32;20076;-57
2021/04/21 05:33:53;;;;;;;14.25;7.85;;;7.30;28.90;;;;;;4376717;32;20093;-57
2021/04/21 05:37:14;;;;;;;11.12;6.80;;;7.30;28.70;;;;;;4376540;32;20182;-57
2021/04/21 05:40:05;;;;;;;12.13;7.55;;;7.50;28.90;;;;;;4352337;32;20082;-57
2021/04/21 05:43:18;;;;;;;10.10;5.90;;;7.40;28.90;;;;;;4376546;32;20488;-58
2021/04/21 05:46:11;;;;;;;11.18;7.65;;;7.30;29.00;;;;;;4376761;32;20081;-57
2021/04/21 05:49:14;;;;;;;11.23;7.10;;;7.40;28.80;;;;;;4350580;32;20141;-57
2021/04/21 05:52:20;;;;;;;12.10;7.65;;;7.50;28.80;;;;;;4376224;32;20074;-56
2021/04/21 05:55:07;;;;;;;13.57;7.12;;;7.40;28.70;;;;;;4338221;32;20073;-57
2021/04/21 05:58:24;;;;;;;11.70;6.85;;;7.60;28.80;;;;;;4350121;32;20468;-57
2021/04/21 06:01:29;;;;;;;14.32;8.40;;;7.50;28.80;;;;;;4328510;33;20158;-57
2021/04/21 06:03:57;;;;;;;9.90;6.47;;;7.40;28.80;;;;;;4345952;33;20090;-56
2021/04/21 06:06:24;;;;;;;10.23;6.80;;;7.40;29.00;;;;;;4345482;33;20071;-57
2021/04/21 06:08:50;;;;;;;14.95;7.72;;;7.30;29.00;;;;;;4345384;33;20075;-59
2021/04/21 06:11:25;;;;;;;9.10;4.45;;;7.60;28.90;;;;;;4321133;33;20063;-57
2021/04/21 06:13:59;;;;;;;15.60;6.68;;;7.50;28.80;;;;;;4313442;32;20141;-57
2021/04/21 06:16:26;;;;;;;12.45;6.25;;;7.50;30.40;;;;;;4332480;33;20156;-57
2021/04/21 06:19:07;;;;;;;12.77;6.82;;;7.50;29.10;;;;;;4333225;33;20540;-57
2021/04/21 06:21:38;;;;;;;7.53;4.70;;;7.50;29.20;;;;;;4333262;33;20056;-57
2021/04/21 06:24:25;;;;;;;3.05;1.67;;;7.50;29.40;;;;;;4333046;33;20497;-56
2021/04/21 06:27:12;;;;;;;13.73;6.72;;;7.40;29.40;;;;;;4344927;32;20155;-58
2021/04/21 06:29:40;;;;;;;14.40;7.15;;;7.30;29.20;;;;;;4347627;32;20082;-58
2021/04/21 06:32:12;;;;;;;14.55;7.25;;;7.20;29.20;;;;;;4320299;32;20545;-61
2021/04/21 06:34:39;;;;;;;18.60;7.10;;;7.30;29.30;;;;;;4337682;32;20079;-59
2021/04/21 06:37:05;;;;;;;13.82;6.82;;;7.40;29.50;;;;;;4350758;32;20055;-60
2021/04/21 06:39:32;;;;;;;15.77;7.12;;;7.30;29.40;;;;;;4333965;32;20096;-57
2021/04/21 06:42:03;;;;;;;10.05;7.22;;;7.40;29.40;;;;;;4334668;32;20157;-60
2021/04/21 06:44:43;;;;;;;11.68;7.15;;;7.30;29.30;;;;;;4300524;33;20063;-61
2021/04/21 06:47:19;;;;;;;14.07;6.62;;;7.40;29.40;;;;;;4337751;32;20102;-60
2021/04/21 06:50:00;;;;;;;;;;;7.40;29.10;;;;;;4332422;32;20144;-57
2021/04/21 06:52:42;;;;;;;14.23;7.12;;;7.50;29.10;;;;;;4329709;32;19997;-60
2021/04/21 06:55:16;;;;;;;19.25;6.90;;;7.70;28.90;;;;;;4336857;33;20090;-60
2021/04/21 06:57:42;;;;;;;11.65;6.43;;;7.60;29.20;;;;;;4336891;32;20059;-59
2021/04/21 07:00:15;;;;;;;14.95;5.95;;;7.60;29.30;;;;;;4318446;32;20152;-61
2021/04/21 07:02:46;;;;;;;15.43;6.60;;;7.40;29.40;;;;;;4328876;32;20573;-60
2021/04/21 07:05:36;;;;;;;13.80;6.45;;;7.50;29.50;;;;;;4332842;32;20071;-60
2021/04/21 07:08:08;;;;;;;11.10;6.87;;;7.60;29.60;;;;;;4335981;32;20419;-60
2021/04/21 07:10:50;;;;;;;12.27;5.75;;;7.50;29.40;;;;;;4356833;32;20494;-58
2021/04/21 07:13:46;;;;;;;18.37;6.40;;;7.50;29.90;;;;;;4314661;32;20067;-58
2021/04/21 07:16:19;;;;;;;11.15;5.18;;;7.40;30.00;;;;;;4330518;32;20486;-59
2021/04/21 07:18:55;;;;;;;16.23;6.87;;;7.40;30.00;;;;;;4344164;32;20152;-59
2021/04/21 07:21:21;;;;;;;14.50;6.53;;;7.60;30.20;;;;;;4334739;32;20122;-59
2021/04/21 07:23:52;;;;;;;9.52;3.45;;;7.40;30.30;;;;;;4319642;32;20079;-56
2021/04/21 07:26:18;;;;;;;16.65;5.50;;;7.20;30.90;;;;;;4340348;32;20110;-59
2021/04/21 07:28:44;;;;;;;14.70;5.43;;;7.20;31.10;;;;;;4310508;32;20090;-57
2021/04/21 07:31:16;;;;;;;17.55;6.22;;;7.30;31.20;;;;;;4347054;32;20501;-60
2021/04/21 07:33:48;;;;;;;18.85;6.10;;;7.30;31.60;;;;;;4329098;32;20075;-59
2021/04/21 07:36:28;;;;;;;11.18;5.28;;;7.00;33.90;;;;;;4349334;32;20068;-60
2021/04/21 07:39:07;;;;;;;15.85;7.43;;;7.00;34.90;;;;;;4334370;33;20066;-57
2021/04/21 07:41:41;;;;;;;8.70;5.20;;;7.10;35.60;;;;;;4349837;32;20532;-58
2021/04/21 07:44:36;;;;;;;10.55;5.70;;;7.10;37.40;;;;;;4333507;32;20086;-59
2021/04/21 07:47:06;;;;;;;9.85;5.60;;;6.90;38.90;;;;;;4350203;32;20091;-60
2021/04/21 07:49:48;;;;;;;9.02;4.65;;;6.80;40.30;;;;;;4353078;32;20155;-62
2021/04/21 07:52:31;;;;;;;12.65;5.30;;;6.60;42.30;;;;;;4343249;32;20067;-60
2021/04/21 07:55:18;;;;;;;8.18;5.20;;;6.60;44.00;;;;;;4311898;32;20090;-59
2021/04/21 07:58:07;;;;;;;9.02;3.90;;;6.90;42.40;;;;;;4347422;32;20512;-59
2021/04/21 08:00:34;;;;;;;12.10;5.57;;;6.50;43.00;;;;;;4340845;32;20110;-61
2021/04/21 08:03:00;;;;;;;10.50;5.00;;;6.60;43.90;;;;;;4316237;32;20075;-58
2021/04/21 08:05:27;;;;;;;14.82;4.80;;;6.60;43.70;;;;;;4333257;32;20459;-60
2021/04/21 08:08:01;;;;;;;5.85;4.15;;;6.70;44.50;;;;;;4354279;32;20071;-60
2021/04/21 08:10:33;;;;;;;11.57;6.00;;;6.20;45.10;;;;;;4344115;32;20077;-60
2021/04/21 08:13:00;;;;;;;12.80;5.93;;;6.40;45.80;;;;;;4323310;33;20441;-60
2021/04/21 08:15:33;;;;;;;8.55;5.12;;;6.20;47.50;;;;;;4341023;32;20095;-60
2021/04/21 08:18:03;;;;;;;11.77;5.32;;;6.40;47.90;;;;;;4350608;32;20161;-58
2021/04/21 08:20:52;;;;;;;12.18;4.50;;;6.30;48.90;;;;;;4342450;32;20081;-60
2021/04/21 08:23:19;;;;;;;14.65;5.40;;;6.30;49.30;;;;;;4339318;32;20082;-61
2021/04/21 08:25:46;;;;;;;9.88;4.90;;;6.10;50.50;;;;;;4354689;32;20205;-61
2021/04/21 08:28:12;;;;;;;10.40;5.32;;;6.20;50.60;;;;;;4340983;32;20169;-59
2021/04/21 08:30:52;;;;;;;6.82;4.55;;;6.20;50.50;;;;;;4348958;32;20101;-61
2021/04/21 08:33:21;;;;;;;11.38;5.05;;;6.10;50.60;;;;;;4346325;32;20073;-60
2021/04/21 08:35:47;;;;;;;12.15;5.50;;;5.90;52.70;;;;;;4323778;32;20074;-59
2021/04/21 08:38:15;;;;;;;11.60;5.57;;;6.10;52.70;;;;;;4326972;32;20157;-60
2021/04/21 08:40:41;;;;;;;8.07;5.00;;;5.80;54.50;;;;;;4341150;32;20070;-60
2021/04/21 08:43:09;;;;;;;11.73;5.43;;;5.80;55.50;;;;;;4355099;32;20612;-59
2021/04/21 08:45:36;;;;;;;12.93;5.25;;;5.90;56.80;;;;;;4336203;32;20075;-59
2021/04/21 08:48:06;;;;;;;11.07;5.60;;;5.60;60.10;;;;;;4319011;32;20478;-61
2021/04/21 08:50:35;;;;;;;10.18;5.47;;;5.50;63.40;;;;;;4332043;32;20215;-58
2021/04/21 08:53:05;;;;;;;6.25;4.03;;;5.40;69.60;;;;;;4336685;32;20172;-59
2021/04/21 08:55:31;;;;;;;10.60;5.15;;;5.40;72.20;;;;;;4358432;32;20500;-61
2021/04/21 08:57:57;;;;;;;11.40;4.53;;;5.10;73.90;;;;;;4340502;32;20138;-60
2021/04/21 09:00:24;;;;;;;8.20;4.47;;;5.30;74.60;;;;;;4313126;33;20094;-62
2021/04/21 09:02:50;;;;;;;10.10;5.75;;;5.20;77.90;;;;;;4351485;32;20079;-61
2021/04/21 09:05:18;;;;;;;13.48;5.15;;;5.30;84.50;;;;;;4333047;33;20167;-60
2021/04/21 09:07:45;;;;;;;10.68;4.47;;;5.20;81.80;;;;;;4342839;32;20498;-62
2021/04/21 09:10:13;;;;;;;11.25;5.10;;;5.20;78.70;;;;;;4343239;32;20094;-58
2021/04/21 09:12:39;;;;;;;9.30;4.80;;;5.00;87.50;;;;;;4330127;33;20448;-58
2021/04/21 09:15:08;;;;;;;8.43;4.50;;;5.10;87.40;;;;;;4338139;32;20071;-59
2021/04/21 09:17:50;;;;;;;5.43;3.53;;;5.10;83.50;;;;;;4332473;32;20506;-59
2021/04/21 09:20:19;;;;;;;13.38;5.00;;;5.20;86.90;;;;;;4358263;32;20081;-61
2021/04/21 09:23:01;;;;;;;12.20;5.07;;;5.30;92.40;;;;;;4335474;32;20171;-60
2021/04/21 09:25:35;;;;;;;11.73;4.60;;;5.20;91.60;;;;;;4332963;32;20082;-58
2021/04/21 09:28:02;;;;;;;9.77;4.62;;;5.10;93.30;;;;;;4350732;32;20520;-60
2021/04/21 09:30:29;;;;;;;11.88;5.50;;;5.00;95.30;;;;;;4338715;32;20093;-59
2021/04/21 09:32:57;;;;;;;11.30;5.18;;;5.00;96.10;;;;;;4342603;32;20142;-58
2021/04/21 09:35:42;;;;;;;9.85;4.43;;;5.10;98.80;;;;;;4343046;32;20502;-58
2021/04/21 09:38:27;;;;;;;9.88;3.80;;;5.00;98.90;;;;;;4340516;32;20059;-63
2021/04/21 09:41:00;;;;;;;10.55;4.57;;;4.60;97.70;;;;;;4335058;32;20112;-58
2021/04/21 09:43:28;;;;;;;16.12;5.10;;;4.80;99.90;;;;;;4328701;32;20067;-58
2021/04/21 09:45:58;;;;;;;14.38;4.75;;;4.70;99.90;;;;;;4330238;32;20078;-58
2021/04/21 09:48:34;;;;;;;13.98;4.82;;;4.90;99.90;;;;;;4339566;32;20129;-58
2021/04/21 09:51:09;;;;;;;8.80;4.87;;;4.90;99.90;;;;;;4341767;32;20070;-57
2021/04/21 09:53:48;;;;;;;7.60;4.30;;;5.00;99.90;;;;;;4332870;32;20155;-58
2021/04/21 09:56:15;;;;;;;8.73;4.18;;;5.00;99.90;;;;;;4344311;32;20509;-57
2021/04/21 09:59:01;;;;;;;12.30;4.07;;;5.00;99.90;;;;;;4341558;32;20070;-58
2021/04/21 10:01:37;;;;;;;7.93;3.90;;;5.10;99.90;;;;;;4341508;32;20444;-59
2021/04/21 10:04:21;;;;;;;10.77;4.25;;;5.10;99.90;;;;;;4324890;32;20101;-62
2021/04/21 10:06:54;;;;;;;8.05;3.50;;;5.00;99.90;;;;;;4353179;32;20077;-56
2021/04/21 10:09:37;;;;;;;7.85;3.72;;;5.00;99.90;;;;;;4350569;32;20444;-58
2021/04/21 10:12:22;;;;;;;9.00;4.07;;;5.10;99.90;;;;;;4344615;32;20074;-61
2021/04/21 10:15:09;;;;;;;4.90;3.33;;;5.20;99.90;;;;;;4368408;32;20163;-60
2021/04/21 10:17:43;;;;;;;8.73;4.30;;;5.00;99.90;;;;;;4341614;32;20090;-62
2021/04/21 10:20:18;;;;;;;9.02;3.90;;;5.00;99.90;;;;;;4341561;32;20146;-57
2021/04/21 10:22:46;;;;;;;4.37;2.30;;;4.90;99.90;;;;;;4352804;32;20485;-55
2021/04/21 10:25:14;;;;;;;9.85;3.65;;;4.90;99.90;;;;;;4329438;32;20205;-58
2021/04/21 10:27:40;;;;;;;9.18;3.72;;;4.80;99.90;;;;;;4311738;32;20148;-58
2021/04/21 10:30:08;;;;;;;8.32;3.00;;;4.80;99.90;;;;;;4345694;32;20505;-57
2021/04/21 10:32:35;;;;;;;7.00;3.65;;;4.70;99.90;;;;;;4345212;32;20127;-57
2021/04/21 10:35:02;;;;;;;14.15;4.10;;;4.70;99.90;;;;;;4329201;32;20070;-60
2021/04/21 10:37:35;;;;;;;8.63;3.30;;;4.70;99.90;;;;;;4342265;32;20113;-58
2021/04/21 10:40:02;;;;;;;12.77;4.72;;;4.50;99.90;;;;;;4352381;32;20155;-59
2021/04/21 10:42:28;;;;;;;17.30;4.70;;;4.60;99.90;;;;;;4353778;32;20098;-59
2021/04/21 10:45:14;;;;;;;11.43;4.00;;;4.50;99.90;;;;;;4353745;32;20091;-61
2021/04/21 10:47:46;;;;;;;11.77;4.30;;;4.40;99.90;;;;;;4346299;32;20183;-61
2021/04/21 10:50:14;;;;;;;11.68;5.03;;;4.40;99.90;;;;;;4336209;33;20086;-57
2021/04/21 10:52:42;;;;;;;6.18;3.42;;;4.50;99.90;;;;;;4348150;32;20094;-58
2021/04/21 10:55:09;;;;;;;6.57;3.33;;;4.40;99.90;;;;;;4353015;32;20087;-58
2021/04/21 10:57:58;;;;;;;9.68;3.85;;;4.40;99.90;;;;;;4372676;32;20159;-56
2021/04/21 11:00:29;;;;;;;7.95;3.72;;;4.40;99.90;;;;;;4336718;32;20074;-60
2021/04/21 11:03:24;;;;;;;11.07;4.10;;;4.30;99.90;;;;;;4358461;32;20138;-59
2021/04/21 11:05:57;;;;;;;10.35;4.20;;;4.50;99.90;;;;;;4348216;32;20160;-58
2021/04/21 11:08:51;;;;;;;9.55;3.97;;;4.50;99.90;;;;;;4340424;32;20796;-58
2021/04/21 11:11:17;;;;;;;6.80;4.30;;;4.50;99.90;;;;;;4356920;32;20066;-60
2021/04/21 11:13:45;;;;;;;10.65;4.15;;;4.50;99.90;;;;;;4322281;33;20059;-58
2021/04/21 11:16:11;;;;;;;12.52;4.45;;;4.40;99.90;;;;;;4325626;32;20505;-60
2021/04/21 11:18:39;;;;;;;15.68;4.82;;;4.60;99.90;;;;;;4364102;32;20055;-58
2021/04/21 11:21:10;;;;;;;11.35;3.83;;;4.50;99.90;;;;;;4332347;32;20090;-59
2021/04/21 11:24:04;;;;;;;13.45;5.03;;;4.50;99.90;;;;;;4357175;32;20568;-58
2021/04/21 11:26:49;;;;;;;10.75;4.25;;;4.40;99.90;;;;;;4351765;32;20130;-56
2021/04/21 11:29:19;;;;;;;13.23;4.60;;;4.50;99.90;;;;;;4353777;32;20572;-62
2021/04/21 11:31:46;;;;;;;13.82;5.30;;;4.40;99.90;;;;;;4343947;33;20069;-59
2021/04/21 11:34:13;;;;;;;8.98;2.95;;;4.40;99.90;;;;;;4354949;32;20094;-59
2021/04/21 11:37:05;;;;;;;12.85;4.30;;;4.40;99.90;;;;;;4354635;32;20169;-61
2021/04/21 11:39:41;;;;;;;9.50;4.28;;;4.40;99.90;;;;;;4355796;32;20149;-61
2021/04/21 11:42:31;;;;;;;12.15;5.93;;;4.40;99.90;;;;;;4349757;32;20070;-62
2021/04/21 11:44:59;;;;;;;7.90;4.25;;;4.40;99.90;;;;;;4325637;33;20083;-59
2021/04/21 11:47:32;;;;;;;7.47;3.55;;;4.30;99.90;;;;;;4309414;32;20155;-60
2021/04/21 11:50:08;;;;;;;6.18;4.47;;;4.40;99.90;;;;;;4338264;32;20113;-58
2021/04/21 11:53:06;;;;;;;8.93;4.00;;;4.30;99.90;;;;;;4346932;32;20124;-59
2021/04/21 11:55:44;;;;;;;7.95;4.12;;;4.40;99.90;;;;;;4335061;33;20085;-59
2021/04/21 11:58:28;;;;;;;7.18;3.62;;;4.50;99.90;;;;;;4350133;32;20082;-58
2021/04/21 12:01:11;;;;;;;6.15;3.10;;;4.40;99.90;;;;;;4336336;32;20091;-57
2021/04/21 12:03:49;;;;;;;11.60;4.30;;;4.50;99.90;;;;;;4313512;33;20176;-60
2021/04/21 12:06:17;;;;;;;8.10;4.28;;;4.40;99.90;;;;;;4322684;33;20070;-58
2021/04/21 12:08:51;;;;;;;7.18;3.78;;;4.50;99.90;;;;;;4335704;32;20097;-58
2021/04/21 12:11:34;;;;;;;9.50;4.22;;;4.50;99.90;;;;;;4337579;32;20187;-59
2021/04/21 12:14:00;;;;;;;8.23;3.83;;;4.50;99.90;;;;;;4350643;32;20127;-59
2021/04/21 12:16:28;;;;;;;8.63;4.12;;;4.50;99.90;;;;;;4349029;32;20114;-59
2021/04/21 12:18:59;;;;;;;8.48;4.00;;;4.60;99.90;;;;;;4338883;32;20070;-59
2021/04/21 12:21:30;;;;;;;9.23;3.87;;;4.70;99.90;;;;;;4356229;32;20501;-59
2021/04/21 12:23:59;;;;;;;5.80;3.90;;;4.60;99.90;;;;;;4337418;32;20109;-62
2021/04/21 12:26:38;;;;;;;10.43;4.30;;;4.70;99.90;;;;;;4321175;32;20231;-58
2021/04/21 12:29:15;;;;;;;6.03;4.00;;;4.70;99.90;;;;;;4356476;32;20077;-59
2021/04/21 12:31:42;;;;;;;11.68;4.37;;;4.50;99.90;;;;;;4355148;32;20221;-59
2021/04/21 12:34:18;;;;;;;6.87;3.72;;;4.50;99.90;;;;;;4339102;32;20086;-59
2021/04/21 12:36:47;;;;;;;6.60;3.55;;;4.50;99.90;;;;;;4341738;32;20074;-59
2021/04/21 12:39:18;;;;;;;5.85;3.50;;;4.50;99.90;;;;;;4336128;32;20062;-59
2021/04/21 12:41:55;;;;;;;6.75;3.65;;;4.50;99.90;;;;;;4342632;32;20706;-61
2021/04/21 12:44:23;;;;;;;7.95;3.67;;;4.50;99.90;;;;;;4356427;32;20097;-61
2021/04/21 12:46:51;;;;;;;6.68;3.03;;;4.50;99.90;;;;;;4343034;32;20536;-59
2021/04/21 12:49:36;;;;;;;7.95;4.03;;;4.40;99.90;;;;;;4357683;32;20082;-59
2021/04/21 12:52:05;;;;;;;8.48;3.55;;;4.40;99.90;;;;;;4333970;32;20066;-58
2021/04/21 12:54:41;;;;;;;8.18;4.35;;;4.20;99.90;;;;;;4356631;32;20464;-61
2021/04/21 12:57:11;;;;;;;6.55;3.65;;;4.00;99.90;;;;;;4368795;32;20062;-57
2021/04/21 12:59:51;;;;;;;6.25;3.87;;;4.00;99.90;;;;;;4368944;32;20151;-59
2021/04/21 13:02:49;;;;;;;3.97;2.83;;;4.00;99.90;;;;;;4356984;32;20066;-59
2021/04/21 13:05:16;;;;;;;11.20;4.25;;;4.00;99.90;;;;;;4334811;32;20154;-56
2021/04/21 13:07:42;;;;;;;9.07;4.03;;;4.00;99.90;;;;;;4318083;32;20070;-57
2021/04/21 13:10:11;;;;;;;5.85;3.90;;;4.00;99.90;;;;;;4330892;32;20188;-60
2021/04/21 13:12:37;;;;;;;8.35;3.75;;;3.90;99.90;;;;;;4336937;32;20089;-58
2021/04/21 13:15:13;;;;;;;6.43;4.22;;;3.90;99.90;;;;;;4345505;32;20082;-58
2021/04/21 13:17:54;;;;;;;6.62;2.83;;;3.90;99.90;;;;;;4347414;32;20074;-59
2021/04/21 13:20:40;;;;;;;7.57;3.62;;;4.10;99.90;;;;;;4347472;32;20537;-61
2021/04/21 13:23:20;;;;;;;6.67;4.03;;;4.10;99.90;;;;;;4335789;32;20101;-59
2021/04/21 13:25:58;;;;;;;7.97;3.42;;;4.10;99.90;;;;;;4370783;32;20177;-59
2021/04/21 13:28:32;;;;;;;7.30;3.62;;;4.30;99.90;;;;;;4340270;32;20089;-59
2021/04/21 13:31:25;;;;;;;7.07;3.12;;;4.30;99.90;;;;;;4353958;32;20146;-59
2021/04/21 13:33:52;;;;;;;8.98;3.67;;;4.30;99.90;;;;;;4346227;32;20061;-59
2021/04/21 13:36:19;;;;;;;5.40;3.20;;;4.40;99.90;;;;;;4359306;32;20093;-58
2021/04/21 13:38:46;;;;;;;4.85;2.90;;;4.40;99.90;;;;;;4329961;32;20079;-59